Time;durP1;ratioP1;P1;durP2;ratioP2;P2;SDS_P1;SDS_P2;PMS_P1;PMS_P2;Temp;Humidity;BMP_temperature;BMP_pressure;BME280_temperature;BME280_humidity;BME280_pressure;Samples;Min_cycle;Max_cycle;Signal;HPM_P1;HPM_P2
2023/04/12 00:00:14;;;;;;;5.47;4.35;;;;;;;12.88;51.73;97591.38;5018386;28;20510;-74
2023/04/12 00:02:40;;;;;;;6.25;4.20;;;;;;;12.86;51.54;97591.53;5029935;28;20041;-74
2023/04/12 00:05:08;;;;;;;6.13;4.30;;;;;;;12.87;51.49;97601.00;5030035;28;20120;-73
2023/04/12 00:07:33;;;;;;;5.00;4.10;;;;;;;12.85;51.55;97595.13;5046098;28;20037;-74
2023/04/12 00:09:59;;;;;;;5.70;4.18;;;;;;;12.84;51.69;97588.25;5013575;28;20111;-74
2023/04/12 00:12:24;;;;;;;6.00;4.35;;;;;;;12.84;51.57;97590.88;5030114;28;20029;-73
2023/04/12 00:14:50;;;;;;;6.07;4.05;;;;;;;12.84;51.38;97596.13;5029922;28;20040;-73
2023/04/12 00:17:15;;;;;;;6.93;4.43;;;;;;;12.87;51.28;97592.34;5029899;28;20025;-73
2023/04/12 00:19:41;;;;;;;5.78;4.35;;;;;;;12.88;51.52;97593.97;5046264;28;20048;-72
2023/04/12 00:22:10;;;;;;;4.72;3.90;;;;;;;12.83;51.45;97582.19;5046429;28;20194;-73
2023/04/12 00:24:37;;;;;;;5.82;4.00;;;;;;;12.87;51.78;97590.53;5013589;28;20037;-73
2023/04/12 00:27:04;;;;;;;4.95;3.97;;;;;;;12.85;51.46;97584.63;5029874;28;20029;-72
2023/04/12 00:29:29;;;;;;;5.00;4.10;;;;;;;12.85;51.29;97592.50;5029745;28;20037;-73
2023/04/12 00:31:55;;;;;;;5.50;4.00;;;;;;;12.82;51.35;97585.78;5029107;28;20044;-73
2023/04/12 00:34:20;;;;;;;4.32;3.70;;;;;;;12.84;51.57;97585.63;5029656;28;20103;-72
2023/04/12 00:36:46;;;;;;;6.47;4.30;;;;;;;12.85;51.79;97585.44;5030819;28;20052;-73
2023/04/12 00:39:11;;;;;;;5.05;4.03;;;;;;;12.83;51.56;97582.19;5029662;28;20038;-73
2023/04/12 00:41:37;;;;;;;5.70;3.95;;;;;;;12.82;51.48;97574.47;5030784;28;20517;-73
2023/04/12 00:44:03;;;;;;;5.68;3.90;;;;;;;12.83;51.63;97571.69;5046094;28;20052;-73
2023/04/12 00:46:29;;;;;;;5.13;3.95;;;;;;;12.80;51.57;97574.63;5030886;28;20025;-73
2023/04/12 00:48:56;;;;;;;6.35;4.53;;;;;;;12.80;51.33;97569.41;5013300;28;20040;-72
2023/04/12 00:51:24;;;;;;;5.63;4.05;;;;;;;12.77;51.60;97553.19;5030737;28;20101;-72
2023/04/12 00:53:52;;;;;;;5.88;4.18;;;;;;;12.80;51.56;97565.97;5031124;28;20508;-73
2023/04/12 00:56:18;;;;;;;5.75;4.50;;;;;;;12.76;51.58;97560.25;5031413;28;20400;-72
2023/04/12 00:58:44;;;;;;;5.20;3.90;;;;;;;12.78;51.25;97554.84;4998339;28;20065;-72
2023/04/12 01:01:10;;;;;;;5.18;4.13;;;;;;;12.78;51.54;97563.50;5033044;28;20064;-72
2023/04/12 01:03:41;;;;;;;6.07;4.03;;;;;;;12.79;51.37;97562.53;5035099;28;20057;-72
2023/04/12 01:06:12;;;;;;;8.00;3.97;;;;;;;12.78;51.13;97560.09;5035230;28;20477;-72
2023/04/12 01:08:42;;;;;;;4.55;4.00;;;;;;;12.79;51.62;97565.16;5018712;28;20029;-73
2023/04/12 01:11:14;;;;;;;6.32;3.92;;;;;;;12.79;51.48;97565.16;5034819;28;20492;-72
2023/04/12 01:14:06;;;;;;;5.57;3.88;;;;;;;12.79;51.56;97556.47;5018831;28;20415;-73
2023/04/12 01:16:40;;;;;;;4.90;3.88;;;;;;;12.79;51.40;97557.31;5036518;28;20121;-72
2023/04/12 01:19:27;;;;;;;5.55;4.20;;;;;;;12.78;51.34;97563.50;5034752;28;20028;-74
2023/04/12 01:22:17;;;;;;;5.05;3.85;;;;;;;12.79;51.20;97557.31;5020259;28;20446;-72
2023/04/12 01:24:54;;;;;;;5.57;4.30;;;;;;;12.78;51.09;97552.22;5035897;28;20031;-72
2023/04/12 01:27:42;;;;;;;4.97;3.88;;;;;;;12.75;50.98;97542.06;5018977;28;20044;-72
2023/04/12 01:30:08;;;;;;;6.13;4.10;;;;;;;12.77;51.11;97546.16;5018533;28;20423;-72
2023/04/12 01:32:34;;;;;;;4.70;3.83;;;;;;;12.77;51.34;97546.16;5018166;28;20117;-73
2023/04/12 01:35:00;;;;;;;5.45;4.20;;;;;;;12.77;51.02;97543.53;5034279;28;20025;-72
2023/04/12 01:37:26;;;;;;;5.18;3.80;;;;;;;12.77;51.20;97542.72;5018438;28;20104;-73
2023/04/12 01:39:51;;;;;;;4.90;4.00;;;;;;;12.77;51.07;97537.50;5034487;28;20403;-73
2023/04/12 01:42:20;;;;;;;4.70;4.00;;;;;;;12.74;51.19;97533.38;5034383;28;20087;-74
2023/04/12 01:44:46;;;;;;;5.82;3.78;;;;;;;12.76;51.11;97538.44;5035599;28;20427;-73
2023/04/12 01:47:11;;;;;;;6.32;4.10;;;;;;;12.76;50.91;97534.06;5017937;28;20029;-73
2023/04/12 01:49:46;;;;;;;5.20;4.05;;;;;;;12.76;51.19;97534.06;5017219;28;20065;-73
2023/04/12 01:52:12;;;;;;;5.18;3.80;;;;;;;12.78;51.00;97532.09;5017320;28;20041;-73
2023/04/12 01:54:38;;;;;;;5.00;4.00;;;;;;;12.74;51.05;97524.72;5034127;28;20032;-73
2023/04/12 01:57:04;;;;;;;5.82;4.20;;;;;;;12.78;50.83;97542.56;5017435;28;20029;-73
2023/04/12 01:59:31;;;;;;;5.50;4.00;;;;;;;12.72;51.09;97521.44;5001087;28;20489;-73
2023/04/12 02:01:57;;;;;;;5.68;4.07;;;;;;;12.77;51.04;97534.88;5017428;28;20103;-73
2023/04/12 02:04:24;;;;;;;5.38;3.92;;;;;;;12.78;51.24;97532.09;5017492;28;20037;-73
2023/04/12 02:06:50;;;;;;;5.37;4.20;;;;;;;12.78;50.82;97526.03;5017736;28;20084;-73
2023/04/12 02:09:15;;;;;;;4.60;4.10;;;;;;;12.73;50.74;97517.81;5017641;28;20029;-72
2023/04/12 02:11:45;;;;;;;5.05;4.18;;;;;;;12.78;50.87;97531.28;5017311;28;20472;-73
2023/04/12 02:14:11;;;;;;;5.03;3.72;;;;;;;12.77;51.13;97535.69;5017713;28;20026;-73
2023/04/12 02:16:36;;;;;;;5.28;3.95;;;;;;;12.74;50.91;97524.72;5033754;28;20111;-73
2023/04/12 02:19:02;;;;;;;5.55;4.03;;;;;;;12.77;50.88;97530.44;5017391;28;20037;-73
2023/04/12 02:21:28;;;;;;;5.88;4.10;;;;;;;12.76;50.80;97526.19;5034875;28;20030;-73
2023/04/12 02:23:53;;;;;;;5.55;4.28;;;;;;;12.73;50.81;97523.91;5034616;28;20048;-73
2023/04/12 02:26:21;;;;;;;5.18;3.97;;;;;;;12.77;50.83;97525.19;5017585;28;20121;-73
2023/04/12 02:28:47;;;;;;;4.95;3.78;;;;;;;12.76;50.62;97520.97;5034747;28;20473;-73
2023/04/12 02:31:14;;;;;;;5.32;3.90;;;;;;;12.75;51.01;97519.31;5034275;28;20079;-73
2023/04/12 02:33:40;;;;;;;4.80;3.97;;;;;;;12.75;50.95;97523.75;5034630;28;20404;-73
2023/04/12 02:36:09;;;;;;;5.78;4.18;;;;;;;12.76;50.96;97517.50;5034733;28;20029;-73
2023/04/12 02:38:34;;;;;;;4.60;3.67;;;;;;;12.72;50.74;97517.03;5017190;28;20030;-73
2023/04/12 02:41:00;;;;;;;4.95;3.85;;;;;;;12.73;50.66;97517.81;5016897;28;20537;-73
2023/04/12 02:43:25;;;;;;;5.22;3.92;;;;;;;12.74;51.07;97519.47;5034199;28;20489;-73
2023/04/12 02:45:51;;;;;;;5.43;4.20;;;;;;;12.74;50.96;97516.84;5034317;28;20029;-73
2023/04/12 02:48:16;;;;;;;5.70;4.07;;;;;;;12.74;50.95;97514.25;5016155;28;20041;-73
2023/04/12 02:50:42;;;;;;;5.03;3.80;;;;;;;12.72;50.93;97506.53;5034417;28;20504;-73
2023/04/12 02:53:07;;;;;;;4.32;3.63;;;;;;;12.73;50.75;97510.81;5016584;28;20033;-74
2023/04/12 02:55:33;;;;;;;4.88;3.47;;;;;;;12.73;50.88;97502.13;5016497;28;20095;-74
2023/04/12 02:57:58;;;;;;;4.22;3.72;;;;;;;12.71;50.92;97504.91;5034080;28;20034;-73
2023/04/12 03:00:24;;;;;;;4.88;3.85;;;;;;;12.76;50.50;97496.56;5016255;28;20516;-73
2023/04/12 03:02:50;;;;;;;5.07;3.63;;;;;;;12.77;51.03;97496.41;5016504;28;20039;-73
2023/04/12 03:05:16;;;;;;;4.93;3.88;;;;;;;12.72;50.71;97484.78;5015982;28;20042;-72
2023/04/12 03:07:42;;;;;;;4.65;3.45;;;;;;;12.75;50.73;97477.41;5016385;28;20025;-72
2023/04/12 03:10:10;;;;;;;5.53;4.10;;;;;;;12.79;50.52;97491.84;4999007;28;20056;-72
2023/04/12 03:12:35;;;;;;;5.38;3.95;;;;;;;12.80;50.44;97495.25;4999495;28;20120;-72
2023/04/12 03:15:01;;;;;;;4.65;3.63;;;;;;;12.79;50.29;97496.25;5016136;28;20037;-72
2023/04/12 03:17:27;;;;;;;5.82;4.10;;;;;;;12.81;50.50;97496.91;4999760;28;20517;-72
2023/04/12 03:19:52;;;;;;;4.78;3.67;;;;;;;12.80;50.50;97498.69;5016127;28;20468;-72
2023/04/12 03:22:18;;;;;;;4.80;3.90;;;;;;;12.82;50.19;97501.16;5033690;28;20025;-72
2023/04/12 03:24:44;;;;;;;5.47;3.50;;;;;;;12.79;50.06;97499.69;5015645;28;20025;-72
2023/04/12 03:27:10;;;;;;;4.47;3.63;;;;;;;12.83;49.74;97505.41;5015058;28;20034;-71
2023/04/12 03:29:35;;;;;;;5.28;3.70;;;;;;;12.81;49.91;97505.59;5015693;28;20400;-74
2023/04/12 03:32:01;;;;;;;5.28;3.53;;;;;;;12.81;50.02;97508.19;5015999;28;20045;-73
2023/04/12 03:34:31;;;;;;;4.97;3.58;;;;;;;12.82;49.95;97503.78;5015727;28;20079;-75
2023/04/12 03:36:57;;;;;;;4.95;3.63;;;;;;;12.81;49.67;97502.97;5000649;28;20108;-86
2023/04/12 03:39:22;;;;;;;4.25;3.25;;;;;;;13.07;60.36;97509.84;5015925;28;20028;-78
2023/04/12 03:41:48;;;;;;;4.82;3.40;;;;;;;13.13;57.33;97503.97;5015904;28;20113;-78
2023/04/12 03:44:14;;;;;;;16.23;4.00;;;;;;;13.34;64.15;97500.06;5015325;28;20034;-75
2023/04/12 03:46:39;;;;;;;7.18;3.80;;;;;;;13.43;60.61;97503.50;4998577;28;20030;-79
2023/04/12 03:49:05;;;;;;;12.43;3.40;;;;;;;13.53;62.96;97514.63;5032605;28;20033;-77
2023/04/12 03:51:30;;;;;;;10.10;3.70;;;;;;;13.61;61.46;97501.50;5016274;28;20411;-76
2023/04/12 03:53:56;;;;;;;10.32;3.70;;;;;;;13.57;58.82;97501.03;4999025;28;20033;-76
2023/04/12 03:56:21;;;;;;;8.30;3.75;;;;;;;13.54;57.62;97503.16;5014264;28;20052;-77
2023/04/12 03:58:47;;;;;;;13.00;3.80;;;;;;;13.46;56.88;97490.88;4994869;28;20096;-80
2023/04/12 04:01:14;;;;;;;6.70;3.30;;;;;;;13.42;56.28;97494.81;5026977;28;20056;-79
2023/04/12 04:03:39;;;;;;;7.45;3.95;;;;;;;13.44;55.94;97507.75;5049569;28;20507;-87
2023/04/12 04:06:07;;;;;;;9.07;3.58;;;;;;;13.41;55.36;97503.69;5000895;28;20083;-82
2023/04/12 04:08:33;;;;;;;7.35;3.75;;;;;;;13.38;54.68;97506.63;5032027;28;20026;-81
2023/04/12 04:10:59;;;;;;;6.32;3.63;;;;;;;13.35;54.40;97512.19;5048330;28;20033;-82
2023/04/12 04:13:24;;;;;;;6.53;3.67;;;;;;;13.35;53.90;97513.00;5015790;28;20032;-82
2023/04/12 04:15:55;;;;;;;9.15;3.75;;;;;;;13.34;53.57;97521.84;5032013;28;20033;-84
2023/04/12 04:18:21;;;;;;;6.50;3.60;;;;;;;13.33;53.04;97519.38;5032031;28;20021;-83
2023/04/12 04:20:46;;;;;;;7.07;3.67;;;;;;;13.31;52.97;97516.09;5031307;28;20389;-82
2023/04/12 04:23:12;;;;;;;4.95;3.55;;;;;;;13.29;52.39;97525.94;5031533;28;20029;-82
2023/04/12 04:25:38;;;;;;;5.57;3.75;;;;;;;13.20;51.84;97512.81;5032866;28;20505;-84
2023/04/12 04:28:06;;;;;;;5.25;3.42;;;;;;;13.26;51.67;97529.69;5031462;28;20091;-84
2023/04/12 04:30:33;;;;;;;5.68;3.05;;;;;;;13.25;51.81;97533.31;5048105;28;20034;-81
2023/04/12 04:32:58;;;;;;;4.88;3.70;;;;;;;13.24;51.35;97536.09;5047320;28;20033;-83
2023/04/12 04:35:24;;;;;;;6.90;3.47;;;;;;;13.27;50.85;97536.56;5030493;28;20040;-83
2023/04/12 04:37:51;;;;;;;6.00;3.38;;;;;;;13.25;50.96;97525.44;5031335;28;20041;-79
2023/04/12 04:40:19;;;;;;;4.30;3.30;;;;;;;13.35;52.68;97539.22;5054405;28;20084;-73
2023/04/12 04:42:53;;;;;;;4.50;3.30;;;;;;;13.47;52.34;97542.34;5033563;28;20021;-76
2023/04/12 04:45:20;;;;;;;6.20;3.72;;;;;;;13.51;51.61;97541.00;5031548;28;20033;-78
2023/04/12 04:47:46;;;;;;;4.70;3.20;;;;;;;13.52;51.24;97545.28;5031218;28;20396;-78
2023/04/12 04:50:11;;;;;;;4.72;3.75;;;;;;;13.55;51.18;97539.72;5047546;28;20040;-78
2023/04/12 04:52:38;;;;;;;5.13;3.25;;;;;;;13.57;50.58;97544.78;5014525;28;20033;-76
2023/04/12 04:55:04;;;;;;;5.55;2.95;;;;;;;13.53;50.75;97539.03;5014561;28;20037;-78
2023/04/12 04:57:29;;;;;;;5.07;3.00;;;;;;;13.59;50.35;97547.25;4998571;28;20061;-80
2023/04/12 04:59:55;;;;;;;4.00;2.85;;;;;;;13.57;50.55;97532.50;5029895;28;20080;-79
2023/04/12 05:02:21;;;;;;;4.38;3.25;;;;;;;13.60;50.25;97535.75;5014604;28;20042;-78
2023/04/12 05:04:46;;;;;;;6.53;3.08;;;;;;;13.65;53.57;97534.28;5030912;28;20046;-81
2023/04/12 05:07:13;;;;;;;5.18;3.10;;;;;;;13.73;53.19;97539.50;5011811;28;20034;-80
2023/04/12 05:09:38;;;;;;;5.45;2.88;;;;;;;13.74;52.06;97533.28;4996024;28;20022;-81
2023/04/12 05:12:04;;;;;;;4.25;2.80;;;;;;;13.77;51.85;97537.38;5012661;28;20566;-78
2023/04/12 05:14:30;;;;;;;4.20;2.90;;;;;;;13.79;51.33;97538.03;5011304;28;20124;-78
2023/04/12 05:16:56;;;;;;;5.45;2.92;;;;;;;13.85;51.07;97544.41;5011057;28;20433;-82
2023/04/12 05:19:21;;;;;;;5.63;3.10;;;;;;;13.86;50.30;97543.44;5028406;28;20029;-77
2023/04/12 05:21:46;;;;;;;5.18;2.83;;;;;;;13.91;50.33;97547.19;5030862;28;20029;-74
2023/04/12 05:24:12;;;;;;;4.43;3.10;;;;;;;13.93;50.16;97547.84;5030788;28;20500;-76
2023/04/12 05:26:37;;;;;;;4.05;3.13;;;;;;;13.93;49.52;97541.75;5014453;28;20034;-75
2023/04/12 05:29:03;;;;;;;5.07;2.80;;;;;;;13.97;49.05;97543.06;5014579;28;20476;-76
2023/04/12 05:31:28;;;;;;;3.80;2.67;;;;;;;13.98;48.92;97538.63;5031109;28;20029;-76
2023/04/12 05:33:54;;;;;;;5.78;3.05;;;;;;;13.99;48.85;97535.03;5030960;28;20034;-76
2023/04/12 05:36:20;;;;;;;7.45;3.35;;;;;;;14.02;48.61;97538.13;5031099;28;20060;-75
2023/04/12 05:38:45;;;;;;;3.20;2.65;;;;;;;14.07;48.16;97540.25;4997565;28;20043;-75
2023/04/12 05:41:11;;;;;;;3.53;2.50;;;;;;;14.07;47.96;97533.22;5013919;28;20504;-75
2023/04/12 05:43:37;;;;;;;5.30;2.88;;;;;;;14.07;47.90;97542.88;5013786;28;20033;-76
2023/04/12 05:46:04;;;;;;;3.70;2.70;;;;;;;14.12;47.53;97535.31;5031470;28;20396;-76
2023/04/12 05:48:30;;;;;;;4.88;2.85;;;;;;;14.16;47.38;97548.94;5018236;28;20100;-75
2023/04/12 05:50:55;;;;;;;5.18;2.65;;;;;;;14.18;47.25;97547.75;5050988;28;20469;-76
2023/04/12 05:53:21;;;;;;;4.72;2.95;;;;;;;14.16;47.20;97549.75;5017703;28;20073;-75
2023/04/12 05:55:46;;;;;;;5.13;2.67;;;;;;;14.24;46.97;97544.47;5001522;28;20033;-78
2023/04/12 05:58:12;;;;;;;4.40;2.53;;;;;;;14.34;46.74;97546.06;5017750;28;20400;-77
2023/04/12 06:00:41;;;;;;;3.55;2.75;;;;;;;14.41;46.48;97547.03;5015255;28;20061;-80
2023/04/12 06:03:10;;;;;;;5.00;3.10;;;;;;;14.46;46.44;97556.03;4965772;28;20390;-76
2023/04/12 06:05:36;;;;;;;3.85;2.88;;;;;;;14.51;46.39;97546.84;4966379;28;20038;-77
2023/04/12 06:08:03;;;;;;;3.85;2.70;;;;;;;14.58;46.26;97550.38;4997550;28;20038;-76
2023/04/12 06:10:29;;;;;;;5.55;2.88;;;;;;;14.64;46.17;97537.44;4981837;28;20046;-76
2023/04/12 06:12:54;;;;;;;4.72;3.05;;;;;;;14.71;45.97;97542.00;4965493;28;20049;-76
2023/04/12 06:15:20;;;;;;;4.35;2.70;;;;;;;14.79;45.79;97539.34;4981453;28;20037;-76
2023/04/12 06:17:45;;;;;;;3.60;2.92;;;;;;;14.81;45.63;97540.78;4981649;28;20065;-77
2023/04/12 06:20:11;;;;;;;3.90;2.85;;;;;;;14.91;45.36;97535.31;4997698;28;20121;-77
2023/04/12 06:22:37;;;;;;;3.80;3.05;;;;;;;15.00;45.05;97536.88;4981122;28;20436;-77
2023/04/12 06:25:03;;;;;;;3.55;2.92;;;;;;;15.07;45.24;97537.03;4981352;28;20033;-77
2023/04/12 06:27:30;;;;;;;5.63;2.88;;;;;;;15.10;45.12;97528.78;4965221;28;20022;-76
2023/04/12 06:29:56;;;;;;;7.28;3.22;;;;;;;15.17;44.91;97523.63;4965427;28;20420;-76
2023/04/12 06:32:21;;;;;;;5.20;3.22;;;;;;;15.27;44.85;97541.81;4981482;28;20048;-77
2023/04/12 06:34:47;;;;;;;3.38;2.70;;;;;;;15.34;44.68;97540.13;5015015;28;20041;-76
2023/04/12 06:37:12;;;;;;;4.57;3.00;;;;;;;15.38;44.53;97542.19;4980827;28;20067;-76
2023/04/12 06:39:38;;;;;;;3.97;3.08;;;;;;;15.41;44.85;97548.91;5015254;28;20037;-77
2023/04/12 06:42:03;;;;;;;3.92;2.90;;;;;;;15.42;44.54;97536.56;4981147;28;20123;-76
2023/04/12 06:44:29;;;;;;;4.40;3.08;;;;;;;15.52;44.33;97542.41;4964883;28;20128;-80
2023/04/12 06:46:54;;;;;;;4.70;2.95;;;;;;;15.51;44.32;97538.97;4981330;28;20041;-76
2023/04/12 06:49:20;;;;;;;3.95;2.95;;;;;;;15.54;44.13;97545.69;4980785;28;20516;-77
2023/04/12 06:51:46;;;;;;;5.32;3.30;;;;;;;15.60;44.16;97555.50;4964838;28;20033;-76
2023/04/12 06:54:12;;;;;;;9.15;3.40;;;;;;;15.56;44.17;97544.53;4981028;28;20034;-76
2023/04/12 06:56:38;;;;;;;5.13;3.40;;;;;;;15.63;44.20;97549.88;4981602;28;20485;-78
2023/04/12 06:59:04;;;;;;;4.30;3.25;;;;;;;15.68;44.13;97558.03;4963683;28;20057;-74
2023/04/12 07:01:29;;;;;;;4.15;3.30;;;;;;;15.73;44.00;97547.81;4997069;28;20135;-78
2023/04/12 07:03:55;;;;;;;7.10;3.65;;;;;;;15.79;43.91;97550.75;4981025;28;20030;-79
2023/04/12 07:06:20;;;;;;;4.85;3.50;;;;;;;15.82;43.77;97548.59;4980398;28;20030;-79
2023/04/12 07:08:47;;;;;;;5.47;3.83;;;;;;;15.96;43.61;97548.78;4964749;28;20041;-79
2023/04/12 07:11:12;;;;;;;4.05;3.30;;;;;;;16.04;43.19;97554.78;4981070;28;20034;-79
2023/04/12 07:13:38;;;;;;;6.18;3.45;;;;;;;16.24;42.92;97554.22;4964794;28;20091;-78
2023/04/12 07:16:04;;;;;;;5.07;3.50;;;;;;;16.38;42.49;97539.41;4964973;28;20500;-76
2023/04/12 07:18:30;;;;;;;5.20;4.03;;;;;;;16.59;42.13;97543.94;4980891;28;20026;-75
2023/04/12 07:20:58;;;;;;;5.43;3.15;;;;;;;16.81;41.75;97536.91;4964209;28;20037;-76
2023/04/12 07:23:24;;;;;;;5.05;3.42;;;;;;;17.02;41.56;97544.03;4965241;28;20033;-78
2023/04/12 07:25:50;;;;;;;4.18;3.25;;;;;;;17.23;40.97;97534.50;4980460;28;20111;-76
2023/04/12 07:28:16;;;;;;;4.85;3.58;;;;;;;17.44;40.77;97554.75;4980594;28;20029;-77
2023/04/12 07:30:41;;;;;;;4.05;3.25;;;;;;;17.70;40.15;97546.25;4964117;28;20124;-76
2023/04/12 07:33:07;;;;;;;5.22;3.30;;;;;;;17.96;39.32;97535.06;4980279;28;20087;-80
2023/04/12 07:35:33;;;;;;;7.70;3.40;;;;;;;18.22;39.03;97529.16;4964147;28;20029;-80
2023/04/12 07:37:59;;;;;;;5.30;3.35;;;;;;;18.54;38.62;97532.13;4980452;28;20025;-77
2023/04/12 07:40:25;;;;;;;3.90;3.05;;;;;;;18.80;37.93;97522.66;4980546;28;20117;-76
2023/04/12 07:42:50;;;;;;;4.68;3.03;;;;;;;19.11;37.48;97534.56;4980075;28;20417;-76
2023/04/12 07:45:16;;;;;;;7.18;3.72;;;;;;;19.30;37.24;97525.81;4996052;28;20033;-76
2023/04/12 07:47:41;;;;;;;7.43;3.33;;;;;;;19.56;36.89;97540.09;4963932;28;20025;-76
2023/04/12 07:50:07;;;;;;;4.93;3.10;;;;;;;19.61;36.65;97537.66;4995609;28;20428;-77
2023/04/12 07:52:33;;;;;;;3.67;2.78;;;;;;;19.69;36.28;97537.44;4980541;28;20037;-78
2023/04/12 07:54:58;;;;;;;5.00;3.10;;;;;;;19.81;36.00;97534.19;4979993;28;20065;-78
2023/04/12 07:57:25;;;;;;;4.93;3.28;;;;;;;19.97;35.22;97541.72;4980406;28;20030;-78
2023/04/12 07:59:51;;;;;;;5.45;3.05;;;;;;;20.13;34.83;97539.63;4970097;28;20050;-76
2023/04/12 08:02:23;;;;;;;3.90;3.00;;;;;;;20.27;34.94;97548.38;5015303;28;20091;-78
2023/04/12 08:04:54;;;;;;;4.43;3.03;;;;;;;20.34;34.71;97557.13;5032180;28;20061;-79
2023/04/12 08:07:23;;;;;;;5.13;2.85;;;;;;;20.27;34.41;97543.88;5015463;28;20134;-76
2023/04/12 08:09:48;;;;;;;3.97;3.05;;;;;;;20.41;34.31;97542.84;5015660;28;20053;-76
2023/04/12 08:12:14;;;;;;;3.58;2.70;;;;;;;20.30;34.36;97548.75;5014924;28;20037;-76
2023/04/12 08:14:40;;;;;;;3.08;2.63;;;;;;;20.13;34.75;97548.41;4999142;28;20037;-76
2023/04/12 08:17:05;;;;;;;4.05;2.75;;;;;;;20.01;34.59;97560.66;5015221;28;20033;-76
2023/04/12 08:19:31;;;;;;;4.47;2.60;;;;;;;19.80;35.47;97565.16;4999035;28;20128;-77
2023/04/12 08:21:56;;;;;;;3.80;2.58;;;;;;;19.62;35.58;97560.44;5015268;28;20026;-76
2023/04/12 08:24:22;;;;;;;3.20;2.40;;;;;;;19.42;36.03;97549.84;5031843;28;20130;-78
2023/04/12 08:26:49;;;;;;;4.07;2.70;;;;;;;19.30;36.10;97559.41;5031713;28;20395;-79
2023/04/12 08:29:15;;;;;;;3.80;2.47;;;;;;;19.26;36.14;97556.34;4999251;28;20124;-79
2023/04/12 08:31:41;;;;;;;4.72;2.60;;;;;;;19.18;36.21;97556.53;5015165;28;20120;-77
2023/04/12 08:34:06;;;;;;;3.03;2.40;;;;;;;19.12;36.43;97560.00;5014381;28;20056;-77
2023/04/12 08:36:32;;;;;;;4.03;2.30;;;;;;;19.09;36.74;97553.28;5015048;28;20125;-77
2023/04/12 08:39:01;;;;;;;4.07;2.10;;;;;;;19.04;36.40;97552.22;5014776;28;20072;-75
2023/04/12 08:41:28;;;;;;;3.33;1.92;;;;;;;19.07;36.36;97568.53;4998177;28;20029;-79
2023/04/12 08:43:57;;;;;;;4.28;2.03;;;;;;;19.11;36.25;97553.88;5014844;28;20548;-77
2023/04/12 08:46:22;;;;;;;3.08;1.95;;;;;;;19.06;36.35;97560.81;5015176;28;20053;-76
2023/04/12 08:48:52;;;;;;;3.35;1.90;;;;;;;19.02;36.50;97555.06;5031037;28;20033;-75
2023/04/12 08:51:18;;;;;;;2.35;1.75;;;;;;;19.01;35.81;97571.97;5015469;28;20038;-77
2023/04/12 08:53:44;;;;;;;2.60;1.52;;;;;;;18.89;36.30;97561.16;4998736;28;20112;-78
2023/04/12 08:56:13;;;;;;;2.40;1.70;;;;;;;18.79;36.39;97565.97;5031468;28;20035;-76
2023/04/12 08:58:40;;;;;;;3.30;1.65;;;;;;;18.72;36.63;97571.25;5015064;28;20025;-76
2023/04/12 09:01:14;;;;;;;2.28;1.60;;;;;;;18.63;36.57;97570.59;5014758;28;20053;-74
2023/04/12 09:03:41;;;;;;;3.05;1.60;;;;;;;18.56;36.73;97585.59;5014359;28;20041;-80
2023/04/12 09:06:06;;;;;;;2.47;1.52;;;;;;;18.47;36.58;97576.22;4998383;28;20132;-76
2023/04/12 09:08:32;;;;;;;1.88;1.40;;;;;;;18.41;36.73;97588.38;5030674;28;20496;-76
2023/04/12 09:10:58;;;;;;;1.52;1.15;;;;;;;18.40;36.61;97588.56;5015106;28;20037;-75
2023/04/12 09:13:34;;;;;;;1.85;1.35;;;;;;;18.44;36.23;97581.91;5031023;28;20129;-75
2023/04/12 09:16:00;;;;;;;1.90;1.10;;;;;;;18.55;36.04;97583.13;5014931;28;20053;-77
2023/04/12 09:18:28;;;;;;;3.83;1.42;;;;;;;18.83;35.60;97576.97;4997943;28;20044;-77
2023/04/12 09:21:07;;;;;;;;;;;;;;;19.03;35.35;97577.88;5031737;28;20041;-75
2023/04/12 09:23:34;;;;;;;1.98;1.17;;;;;;;19.38;34.77;97569.78;5018815;28;20269;-77
2023/04/12 09:26:00;;;;;;;1.67;1.10;;;;;;;19.69;34.17;97558.63;5034703;28;20428;-76
2023/04/12 09:28:26;;;;;;;2.40;1.15;;;;;;;19.95;33.56;97566.78;5018567;28;20030;-77
2023/04/12 09:30:57;;;;;;;2.50;1.60;;;;;;;20.18;33.21;97559.19;5018529;28;20041;-77
2023/04/12 09:33:33;;;;;;;2.92;1.52;;;;;;;20.33;33.18;97563.44;5018639;28;20053;-77
2023/04/12 09:36:00;;;;;;;1.92;1.20;;;;;;;20.46;32.97;97575.81;5035004;28;20021;-76
2023/04/12 09:38:26;;;;;;;2.05;1.17;;;;;;;20.51;32.66;97568.88;5002212;28;20546;-77
2023/04/12 09:40:51;;;;;;;1.88;1.20;;;;;;;20.66;32.50;97558.03;5018203;28;20049;-75
2023/04/12 09:43:17;;;;;;;2.47;1.10;;;;;;;20.70;32.38;97561.91;5002162;28;20092;-79
2023/04/12 09:45:42;;;;;;;1.73;1.00;;;;;;;20.82;31.92;97569.19;5001918;28;20065;-76
2023/04/12 09:48:08;;;;;;;2.50;1.20;;;;;;;20.87;31.82;97572.03;5018024;28;20132;-76
2023/04/12 09:50:33;;;;;;;2.22;1.20;;;;;;;20.99;31.81;97565.03;5034438;28;20108;-77
2023/04/12 09:53:02;;;;;;;1.33;0.90;;;;;;;21.09;31.40;97573.31;5017883;28;20033;-75
2023/04/12 09:55:30;;;;;;;1.63;1.05;;;;;;;21.22;31.02;97568.97;5018374;28;20036;-75
2023/04/12 09:57:56;;;;;;;3.55;0.90;;;;;;;21.41;30.40;97568.03;5017816;28;20041;-78
2023/04/12 10:00:23;;;;;;;1.42;0.85;;;;;;;21.33;30.50;97547.88;5003880;28;20131;-81
2023/04/12 10:02:50;;;;;;;1.25;0.90;;;;;;;21.41;30.49;97560.06;4966792;28;20065;-76
2023/04/12 10:05:17;;;;;;;2.05;1.00;;;;;;;21.42;30.10;97559.03;4982231;28;20517;-75
2023/04/12 10:07:43;;;;;;;3.45;0.88;;;;;;;21.52;29.96;97571.84;4965715;28;20570;-78
2023/04/12 10:10:15;;;;;;;2.25;0.93;;;;;;;21.56;29.96;97559.78;4981938;28;20038;-79
2023/04/12 10:12:41;;;;;;;3.92;0.90;;;;;;;21.64;29.36;97561.34;4966680;28;20057;-79
2023/04/12 10:15:19;;;;;;;1.02;0.70;;;;;;;21.63;28.86;97549.94;4966319;28;20034;-80
2023/04/12 10:17:49;;;;;;;3.17;0.88;;;;;;;21.65;29.02;97557.69;4983332;28;20022;-80
2023/04/12 10:20:16;;;;;;;1.10;0.60;;;;;;;21.65;28.76;97560.34;4966374;28;20188;-80
2023/04/12 10:22:42;;;;;;;1.45;0.77;;;;;;;21.68;28.90;97550.09;4965399;28;20033;-75
2023/04/12 10:25:12;;;;;;;2.30;0.80;;;;;;;21.67;28.72;97543.13;4965412;28;20053;-76
2023/04/12 10:27:40;;;;;;;3.53;0.90;;;;;;;21.60;29.05;97544.22;4981862;28;20084;-77
2023/04/12 10:30:25;;;;;;;1.65;0.82;;;;;;;21.48;28.77;97542.28;4981787;28;20034;-77
2023/04/12 10:33:07;;;;;;;1.67;0.70;;;;;;;21.45;28.85;97547.97;4964897;28;20054;-79
2023/04/12 10:35:49;;;;;;;1.55;0.70;;;;;;;21.41;28.91;97543.31;5015618;28;20033;-76
2023/04/12 10:38:14;;;;;;;1.50;0.70;;;;;;;21.48;29.03;97549.41;4981933;28;20029;-75
2023/04/12 10:41:11;;;;;;;0.90;0.57;;;;;;;21.49;29.00;97540.41;4981789;28;20061;-77
2023/04/12 10:43:36;;;;;;;1.42;0.77;;;;;;;21.57;28.92;97545.47;4975534;28;20125;-77
2023/04/12 10:46:05;;;;;;;3.60;0.80;;;;;;;21.60;28.97;97544.22;4997424;28;20050;-77
2023/04/12 10:48:37;;;;;;;1.25;0.68;;;;;;;21.60;28.97;97542.41;4966063;28;20034;-78
2023/04/12 10:51:26;;;;;;;1.30;0.80;;;;;;;21.55;29.10;97533.44;4981382;28;20037;-75
2023/04/12 10:54:07;;;;;;;0.88;0.63;;;;;;;21.59;28.80;97532.00;4983378;28;20021;-77
2023/04/12 10:56:40;;;;;;;1.13;0.70;;;;;;;21.57;28.89;97521.59;5014700;28;20034;-76
2023/04/12 10:59:12;;;;;;;2.03;0.80;;;;;;;21.52;29.00;97523.25;4965105;28;20042;-77
2023/04/12 11:01:38;;;;;;;1.20;0.70;;;;;;;21.53;28.89;97525.69;4981529;28;20080;-76
2023/04/12 11:04:12;;;;;;;1.63;0.60;;;;;;;21.52;28.90;97534.69;4981604;28;20087;-77
2023/04/12 11:06:48;;;;;;;1.92;0.85;;;;;;;21.48;28.86;97530.81;4980590;28;20045;-79
2023/04/12 11:09:32;;;;;;;2.22;0.82;;;;;;;21.47;29.31;97539.81;4997174;28;20026;-76
2023/04/12 11:12:04;;;;;;;2.60;1.20;;;;;;;21.45;32.37;97528.59;4982661;28;20030;-77
2023/04/12 11:14:50;;;;;;;2.38;1.05;;;;;;;21.42;31.39;97524.53;4997401;28;20489;-77
2023/04/12 11:17:16;;;;;;;3.08;0.88;;;;;;;21.52;30.41;97532.03;4963955;28;20555;-80
2023/04/12 11:19:52;;;;;;;2.65;1.08;;;;;;;21.56;30.23;97529.78;4995070;28;20034;-79
2023/04/12 11:22:20;;;;;;;1.45;0.80;;;;;;;21.61;29.99;97537.88;4963073;28;20494;-77
2023/04/12 11:24:46;;;;;;;2.97;0.90;;;;;;;21.64;29.83;97540.13;4961257;28;20026;-76
2023/04/12 11:27:12;;;;;;;2.72;0.90;;;;;;;21.67;29.30;97527.19;4994502;28;20461;-78
2023/04/12 11:29:38;;;;;;;1.55;0.80;;;;;;;21.70;28.98;97518.00;4993234;28;20027;-76
2023/04/12 11:32:04;;;;;;;1.17;0.80;;;;;;;21.75;29.15;97523.47;4992817;28;20409;-77
2023/04/12 11:34:33;;;;;;;3.72;0.90;;;;;;;21.83;28.91;97531.16;4960624;28;20042;-77